Time;durP1;ratioP1;P1;durP2;ratioP2;P2;SDS_P1;SDS_P2;PMS_P1;PMS_P2;Temp;Humidity;BMP_temperature;BMP_pressure;BME280_temperature;BME280_humidity;BME280_pressure;Samples;Min_cycle;Max_cycle;Signal;HPM_P1;HPM_P2
2021/03/18 00:00:57;;;;;;;17.42;3.63;;;6.70;99.90;;;;;;5039431;28;20045;-60
2021/03/18 00:03:27;;;;;;;14.65;3.80;;;6.60;99.90;;;;;;5048034;28;20013;-60
2021/03/18 00:05:53;;;;;;;11.00;3.50;;;6.50;99.90;;;;;;5039251;28;20046;-60
2021/03/18 00:08:20;;;;;;;12.00;3.55;;;6.50;99.90;;;;;;5048101;28;20067;-59
2021/03/18 00:10:46;;;;;;;12.27;3.72;;;6.80;99.90;;;;;;5041213;28;20049;-61
2021/03/18 00:13:13;;;;;;;13.85;3.97;;;6.90;99.90;;;;;;5047273;28;20021;-60
2021/03/18 00:15:40;;;;;;;9.98;3.45;;;6.90;99.90;;;;;;5041588;28;20040;-61
2021/03/18 00:18:07;;;;;;;16.25;3.17;;;6.90;99.90;;;;;;5046170;28;20033;-60
2021/03/18 00:20:33;;;;;;;13.98;3.10;;;6.80;99.90;;;;;;5041893;28;20045;-60
2021/03/18 00:22:59;;;;;;;12.95;2.95;;;6.80;99.90;;;;;;5045308;28;20021;-60
2021/03/18 00:25:25;;;;;;;12.43;3.20;;;6.80;99.90;;;;;;5043667;28;20450;-60
2021/03/18 00:27:51;;;;;;;11.40;3.22;;;6.80;99.90;;;;;;5044096;28;20029;-61
2021/03/18 00:30:19;;;;;;;13.38;3.53;;;6.90;99.90;;;;;;5044453;28;20043;-60
2021/03/18 00:32:45;;;;;;;18.60;4.32;;;6.90;99.90;;;;;;5043000;28;20078;-60
2021/03/18 00:35:12;;;;;;;16.63;3.67;;;7.00;99.90;;;;;;5045693;28;20025;-61
2021/03/18 00:37:41;;;;;;;13.10;3.58;;;6.90;99.90;;;;;;5040805;28;20028;-60
2021/03/18 00:40:17;;;;;;;11.88;3.17;;;6.80;99.90;;;;;;5038205;28;20029;-60
2021/03/18 00:42:55;;;;;;;12.20;3.10;;;6.90;99.90;;;;;;5035474;28;20040;-60
2021/03/18 00:45:22;;;;;;;14.70;4.05;;;6.90;99.90;;;;;;5043802;28;20064;-61
2021/03/18 00:47:48;;;;;;;14.10;3.60;;;7.00;99.90;;;;;;5042974;28;20029;-61
2021/03/18 00:50:31;;;;;;;12.50;3.40;;;7.00;99.90;;;;;;5045422;28;20025;-60
2021/03/18 00:52:58;;;;;;;13.45;3.55;;;6.90;99.90;;;;;;5044270;28;20104;-59
2021/03/18 00:55:24;;;;;;;8.68;3.28;;;7.00;99.90;;;;;;5043604;28;20048;-61
2021/03/18 00:57:51;;;;;;;14.35;3.88;;;6.90;99.90;;;;;;5042479;28;20017;-59
2021/03/18 01:00:44;;;;;;;10.65;2.97;;;6.90;99.90;;;;;;5035968;28;20328;-60
2021/03/18 01:03:12;;;;;;;14.20;3.97;;;7.00;99.90;;;;;;5039949;28;20041;-60
2021/03/18 01:05:47;;;;;;;15.70;3.72;;;7.10;99.90;;;;;;5040955;28;20551;-60
2021/03/18 01:08:15;;;;;;;14.70;4.45;;;7.00;99.90;;;;;;5046549;28;20021;-59
2021/03/18 01:10:51;;;;;;;14.40;4.07;;;6.90;99.90;;;;;;5039141;28;20025;-60
2021/03/18 01:13:19;;;;;;;8.00;3.70;;;6.80;99.90;;;;;;5032528;28;20021;-60
2021/03/18 01:16:24;;;;;;;17.17;3.88;;;6.80;99.90;;;;;;5037139;28;20521;-60
2021/03/18 01:18:54;;;;;;;9.85;3.30;;;6.80;99.90;;;;;;5011248;28;20088;-60
2021/03/18 01:21:22;;;;;;;10.60;3.50;;;6.70;99.90;;;;;;5016439;28;20123;-60
2021/03/18 01:23:48;;;;;;;10.82;2.70;;;6.60;99.90;;;;;;5040694;28;20401;-60
2021/03/18 01:26:14;;;;;;;10.43;3.88;;;6.80;99.90;;;;;;5036176;28;20044;-60
2021/03/18 01:28:41;;;;;;;9.55;2.70;;;6.80;99.90;;;;;;5029300;28;20464;-60
2021/03/18 01:31:09;;;;;;;9.30;3.85;;;6.80;99.90;;;;;;5038063;28;20552;-60
2021/03/18 01:33:35;;;;;;;15.38;2.85;;;6.80;99.90;;;;;;5053133;28;20055;-61
2021/03/18 01:36:02;;;;;;;11.93;3.25;;;6.70;99.90;;;;;;5041775;28;20021;-60
2021/03/18 01:38:29;;;;;;;8.27;2.22;;;6.80;99.90;;;;;;5050870;28;20029;-60
2021/03/18 01:40:57;;;;;;;13.75;2.90;;;6.70;99.90;;;;;;5045411;28;20438;-60
2021/03/18 01:43:27;;;;;;;12.13;2.80;;;6.90;99.90;;;;;;5035377;28;20677;-60
2021/03/18 01:45:53;;;;;;;9.70;2.80;;;6.80;99.90;;;;;;5038221;28;20031;-60
2021/03/18 01:48:20;;;;;;;10.00;2.60;;;6.70;99.90;;;;;;5050653;28;20021;-60
2021/03/18 01:50:46;;;;;;;11.80;3.40;;;6.90;99.90;;;;;;5043424;28;20462;-60
2021/03/18 01:53:12;;;;;;;12.88;3.42;;;6.80;99.90;;;;;;5049640;28;20036;-60
2021/03/18 01:55:40;;;;;;;9.93;2.85;;;6.80;99.90;;;;;;5045602;28;20064;-61
2021/03/18 01:58:07;;;;;;;11.70;3.13;;;6.70;99.90;;;;;;5029021;28;20017;-61
2021/03/18 02:00:34;;;;;;;10.00;3.50;;;6.80;99.90;;;;;;5037920;28;20391;-60
2021/03/18 02:03:01;;;;;;;10.93;2.88;;;6.80;99.90;;;;;;5047688;28;20037;-60
2021/03/18 02:05:28;;;;;;;9.48;2.67;;;6.80;99.90;;;;;;5046114;28;20131;-61
2021/03/18 02:07:55;;;;;;;9.27;3.40;;;6.70;99.90;;;;;;5045310;28;20112;-59
2021/03/18 02:10:34;;;;;;;10.93;3.10;;;6.80;99.90;;;;;;5038743;28;20294;-61
2021/03/18 02:13:01;;;;;;;10.23;2.47;;;6.80;99.90;;;;;;5040104;28;20018;-60
2021/03/18 02:15:38;;;;;;;11.32;2.85;;;6.80;99.90;;;;;;5037795;28;20025;-60
2021/03/18 02:18:10;;;;;;;11.35;2.83;;;6.70;99.90;;;;;;5029808;28;20048;-60
2021/03/18 02:20:53;;;;;;;7.65;2.60;;;6.80;99.90;;;;;;5036049;28;20151;-60
2021/03/18 02:23:34;;;;;;;9.38;2.70;;;6.70;99.90;;;;;;5050142;28;20111;-60
2021/03/18 02:26:14;;;;;;;7.70;2.47;;;6.70;99.90;;;;;;5042936;28;20021;-60
2021/03/18 02:29:17;;;;;;;11.88;3.03;;;6.70;99.90;;;;;;5027223;28;20080;-60
2021/03/18 02:31:45;;;;;;;7.97;2.63;;;6.70;99.90;;;;;;5042673;28;20025;-60
2021/03/18 02:34:27;;;;;;;9.30;2.50;;;6.80;99.90;;;;;;5032413;28;20105;-60
2021/03/18 02:37:08;;;;;;;7.32;2.53;;;6.70;99.90;;;;;;5041024;28;20547;-59
2021/03/18 02:39:42;;;;;;;8.65;2.67;;;6.60;99.90;;;;;;5049126;28;20021;-60
2021/03/18 02:42:16;;;;;;;14.73;2.75;;;6.70;99.90;;;;;;5037347;28;20055;-60
2021/03/18 02:44:44;;;;;;;10.52;2.60;;;6.70;99.90;;;;;;5033407;28;20512;-60
2021/03/18 02:47:11;;;;;;;8.00;2.40;;;6.60;99.90;;;;;;5043096;28;20112;-60
2021/03/18 02:49:45;;;;;;;15.95;2.67;;;6.60;99.90;;;;;;5048588;28;20033;-60
2021/03/18 02:52:15;;;;;;;10.05;3.53;;;6.60;99.90;;;;;;5031934;28;20064;-60
2021/03/18 02:54:42;;;;;;;3.97;2.47;;;6.40;99.90;;;;;;5018085;28;20029;-60
2021/03/18 02:57:11;;;;;;;12.65;2.47;;;6.50;99.90;;;;;;5043020;28;20032;-60
2021/03/18 02:59:39;;;;;;;8.95;2.75;;;6.40;99.90;;;;;;5048122;28;20027;-60
2021/03/18 03:02:11;;;;;;;6.88;2.47;;;6.50;99.90;;;;;;5036286;28;20571;-60
2021/03/18 03:04:39;;;;;;;10.25;2.75;;;6.50;99.90;;;;;;5032279;28;20025;-60
2021/03/18 03:07:07;;;;;;;6.40;2.25;;;6.40;99.90;;;;;;5035434;28;20065;-60
2021/03/18 03:09:34;;;;;;;8.77;2.60;;;6.50;99.90;;;;;;5032273;28;20044;-60
2021/03/18 03:12:01;;;;;;;9.10;3.03;;;6.40;99.90;;;;;;5042274;28;20032;-60
2021/03/18 03:14:29;;;;;;;8.95;2.95;;;6.40;99.90;;;;;;5048952;28;20037;-60
2021/03/18 03:16:55;;;;;;;7.50;2.97;;;6.30;99.90;;;;;;5040021;28;20507;-61
2021/03/18 03:19:21;;;;;;;14.18;3.10;;;6.40;99.90;;;;;;5050191;28;20029;-60
2021/03/18 03:21:48;;;;;;;9.23;2.72;;;6.40;99.90;;;;;;5036784;28;20393;-60
2021/03/18 03:24:16;;;;;;;9.50;2.85;;;6.30;99.90;;;;;;5049921;28;20021;-60
2021/03/18 03:26:42;;;;;;;6.85;2.47;;;6.40;99.90;;;;;;5040118;28;20028;-60
2021/03/18 03:29:09;;;;;;;11.63;2.72;;;6.40;99.90;;;;;;5038664;28;20477;-60
2021/03/18 03:31:35;;;;;;;8.80;2.10;;;6.40;99.90;;;;;;5039267;28;20036;-60
2021/03/18 03:34:05;;;;;;;11.02;2.15;;;6.30;99.90;;;;;;5051226;28;20025;-60
2021/03/18 03:36:31;;;;;;;9.98;2.67;;;6.20;99.90;;;;;;5037790;28;20057;-62
2021/03/18 03:38:57;;;;;;;10.52;2.70;;;6.20;99.90;;;;;;5050973;28;20021;-60
2021/03/18 03:41:23;;;;;;;9.95;2.50;;;6.10;99.90;;;;;;5037970;28;20060;-60
2021/03/18 03:43:49;;;;;;;6.85;2.80;;;6.10;99.90;;;;;;5050532;28;20029;-60
2021/03/18 03:46:15;;;;;;;7.47;2.53;;;6.10;99.90;;;;;;5037921;28;20067;-60
2021/03/18 03:48:41;;;;;;;10.20;2.72;;;6.10;99.90;;;;;;5050577;28;20032;-60
2021/03/18 03:51:06;;;;;;;10.20;2.95;;;6.00;99.90;;;;;;5038624;28;20025;-60
2021/03/18 03:53:51;;;;;;;13.85;2.67;;;6.00;99.90;;;;;;5049406;28;20029;-60
2021/03/18 03:56:28;;;;;;;8.90;2.47;;;5.90;99.90;;;;;;5038305;28;20084;-60
2021/03/18 03:59:05;;;;;;;8.60;2.90;;;5.90;99.90;;;;;;5050578;28;20482;-60
2021/03/18 04:01:44;;;;;;;10.38;3.03;;;5.80;99.90;;;;;;5038019;28;20071;-60
2021/03/18 04:04:18;;;;;;;11.38;2.83;;;5.80;99.90;;;;;;5049923;28;20025;-60
2021/03/18 04:06:45;;;;;;;9.20;2.90;;;5.90;99.90;;;;;;5039990;28;20057;-62
2021/03/18 04:09:14;;;;;;;11.63;3.28;;;5.90;99.90;;;;;;5030113;28;20025;-60
2021/03/18 04:11:41;;;;;;;8.30;2.50;;;5.90;99.90;;;;;;5040176;28;20026;-60
2021/03/18 04:14:10;;;;;;;8.15;2.58;;;5.90;99.90;;;;;;5030287;28;20014;-60
2021/03/18 04:16:38;;;;;;;10.60;3.05;;;6.00;99.90;;;;;;5038026;28;20025;-59
2021/03/18 04:19:05;;;;;;;11.10;2.95;;;5.90;99.90;;;;;;5050140;28;20067;-61
2021/03/18 04:21:34;;;;;;;8.45;2.30;;;5.90;99.90;;;;;;5039479;28;20097;-61
2021/03/18 04:24:01;;;;;;;7.00;2.60;;;5.80;99.90;;;;;;5030172;28;20033;-59
2021/03/18 04:26:32;;;;;;;11.18;2.50;;;5.80;99.90;;;;;;5037093;28;20211;-61
2021/03/18 04:29:01;;;;;;;11.55;2.65;;;5.70;99.90;;;;;;5039302;28;20025;-60
2021/03/18 04:31:28;;;;;;;8.57;3.00;;;5.80;99.90;;;;;;5036847;28;20037;-60
2021/03/18 04:33:56;;;;;;;10.05;3.00;;;5.80;99.90;;;;;;5050149;28;20148;-60
2021/03/18 04:36:22;;;;;;;10.82;2.80;;;5.80;99.90;;;;;;5036633;28;20025;-60
2021/03/18 04:38:48;;;;;;;11.38;2.50;;;5.80;99.90;;;;;;5049943;28;20032;-61
2021/03/18 04:41:15;;;;;;;7.03;2.95;;;5.70;99.90;;;;;;5037528;28;20117;-60
2021/03/18 04:43:41;;;;;;;11.73;2.67;;;5.80;99.90;;;;;;5010235;28;20387;-60
2021/03/18 04:46:09;;;;;;;12.73;3.22;;;5.60;99.90;;;;;;5031372;28;20072;-60
2021/03/18 04:48:39;;;;;;;12.57;3.75;;;5.60;99.90;;;;;;5049009;28;20076;-60
2021/03/18 04:51:09;;;;;;;9.40;2.63;;;5.70;99.90;;;;;;5037625;28;20033;-60
2021/03/18 04:53:36;;;;;;;7.72;2.55;;;5.50;99.90;;;;;;5023469;28;20122;-60
2021/03/18 04:56:08;;;;;;;7.32;2.50;;;5.70;99.90;;;;;;5030755;28;20478;-60
2021/03/18 04:58:39;;;;;;;8.98;3.00;;;5.70;99.90;;;;;;5048882;28;20096;-60
2021/03/18 05:01:06;;;;;;;9.52;2.70;;;5.50;99.90;;;;;;5038318;28;20077;-60
2021/03/18 05:03:33;;;;;;;9.32;2.30;;;5.60;99.90;;;;;;5048290;28;20052;-60
2021/03/18 05:06:00;;;;;;;8.60;2.75;;;5.50;99.90;;;;;;5038668;28;20056;-60
2021/03/18 05:08:27;;;;;;;9.68;2.47;;;5.50;99.90;;;;;;5047614;28;20040;-59
2021/03/18 05:10:54;;;;;;;8.30;2.58;;;5.60;99.90;;;;;;5039943;28;20601;-60
2021/03/18 05:13:20;;;;;;;8.38;3.03;;;5.60;99.90;;;;;;5046741;28;20496;-60
2021/03/18 05:15:47;;;;;;;11.23;3.00;;;5.50;99.90;;;;;;5040944;28;20021;-60
2021/03/18 05:18:14;;;;;;;7.03;2.60;;;5.50;99.90;;;;;;5045534;28;20028;-60
2021/03/18 05:20:42;;;;;;;7.53;1.98;;;5.50;99.90;;;;;;5040980;28;20037;-61
2021/03/18 05:23:09;;;;;;;7.60;2.50;;;5.60;99.90;;;;;;5044755;28;20033;-60
2021/03/18 05:25:36;;;;;;;9.27;2.50;;;5.40;99.90;;;;;;5042141;28;20616;-60
2021/03/18 05:28:02;;;;;;;6.82;2.00;;;5.40;99.90;;;;;;5028712;28;20536;-60
2021/03/18 05:30:29;;;;;;;9.18;2.30;;;5.50;99.90;;;;;;5031080;28;20017;-60
2021/03/18 05:33:03;;;;;;;5.47;2.10;;;5.60;99.90;;;;;;5028852;28;20053;-61
2021/03/18 05:35:29;;;;;;;4.78;1.90;;;5.40;99.90;;;;;;5033365;28;20100;-60
2021/03/18 05:37:55;;;;;;;5.68;1.92;;;5.40;99.90;;;;;;5028777;28;20494;-60
2021/03/18 05:40:21;;;;;;;6.20;2.00;;;5.40;99.90;;;;;;5031571;28;20030;-60
2021/03/18 05:42:50;;;;;;;10.68;2.65;;;5.30;99.90;;;;;;5029038;28;20474;-60
2021/03/18 05:45:18;;;;;;;8.77;2.40;;;5.30;99.90;;;;;;5034317;28;20025;-60
2021/03/18 05:47:44;;;;;;;9.30;2.47;;;5.40;99.90;;;;;;5030086;28;20076;-60
2021/03/18 05:50:17;;;;;;;5.57;2.00;;;5.40;99.90;;;;;;5032508;28;20596;-60
2021/03/18 05:52:43;;;;;;;8.18;2.67;;;5.30;99.90;;;;;;5027339;28;20041;-60
2021/03/18 05:55:10;;;;;;;9.32;2.35;;;5.30;99.90;;;;;;5029093;28;20100;-61
2021/03/18 05:57:37;;;;;;;6.72;2.58;;;5.40;99.90;;;;;;5028609;28;20053;-60
2021/03/18 06:00:11;;;;;;;6.18;2.35;;;5.40;99.90;;;;;;5029505;28;20100;-60
2021/03/18 06:02:38;;;;;;;6.47;2.30;;;5.30;99.90;;;;;;5031168;28;20033;-60
2021/03/18 06:05:10;;;;;;;5.60;2.30;;;5.20;99.90;;;;;;5032291;28;20033;-60
2021/03/18 06:07:37;;;;;;;6.13;2.38;;;5.20;99.90;;;;;;5031323;28;20036;-61
2021/03/18 06:10:05;;;;;;;5.88;2.47;;;5.20;99.90;;;;;;5036132;28;20029;-60
2021/03/18 06:12:31;;;;;;;6.78;2.60;;;5.20;99.90;;;;;;5043577;28;20556;-60
2021/03/18 06:14:57;;;;;;;10.98;3.55;;;5.30;99.90;;;;;;5048882;28;20386;-60
2021/03/18 06:17:25;;;;;;;9.52;3.05;;;5.20;99.90;;;;;;5043475;28;20064;-60
2021/03/18 06:19:52;;;;;;;8.55;2.83;;;5.10;99.90;;;;;;5049122;28;20032;-61
2021/03/18 06:22:36;;;;;;;5.45;2.92;;;5.10;99.90;;;;;;5042584;28;20117;-61
2021/03/18 06:25:04;;;;;;;13.52;2.72;;;5.10;99.90;;;;;;5048754;28;20063;-61
2021/03/18 06:27:30;;;;;;;8.65;3.22;;;5.10;99.90;;;;;;5043041;28;20028;-61
2021/03/18 06:29:56;;;;;;;9.90;3.08;;;5.10;99.90;;;;;;5036282;28;20022;-61
2021/03/18 06:32:23;;;;;;;9.63;3.10;;;5.10;99.90;;;;;;5043312;28;20104;-61
2021/03/18 06:34:51;;;;;;;7.30;2.75;;;5.10;99.90;;;;;;5048370;28;20029;-61
2021/03/18 06:37:38;;;;;;;7.60;3.00;;;5.10;99.90;;;;;;5042434;28;20108;-61
2021/03/18 06:40:19;;;;;;;5.88;2.92;;;5.20;99.90;;;;;;5048751;28;20017;-61
2021/03/18 06:42:59;;;;;;;9.68;2.90;;;5.10;99.90;;;;;;5036232;28;20466;-61
2021/03/18 06:45:30;;;;;;;8.85;3.38;;;5.10;99.90;;;;;;5049762;28;20056;-64
2021/03/18 06:48:00;;;;;;;10.15;3.50;;;5.20;99.90;;;;;;5040429;28;20037;-60
2021/03/18 06:50:32;;;;;;;7.13;3.75;;;5.30;99.90;;;;;;5026493;28;20100;-60
2021/03/18 06:52:58;;;;;;;12.68;3.22;;;5.20;99.90;;;;;;5033661;28;20022;-60
2021/03/18 06:55:28;;;;;;;5.97;2.60;;;5.30;99.90;;;;;;5034357;28;20390;-59
2021/03/18 06:58:23;;;;;;;10.80;3.00;;;5.50;99.90;;;;;;5029388;28;20029;-60
2021/03/18 07:00:55;;;;;;;8.65;2.90;;;5.40;99.90;;;;;;5039511;28;20123;-61
2021/03/18 07:03:34;;;;;;;7.05;2.35;;;5.50;99.90;;;;;;5034833;28;20025;-61
2021/03/18 07:06:04;;;;;;;8.82;2.75;;;5.50;99.90;;;;;;5034574;28;20085;-61
2021/03/18 07:08:38;;;;;;;7.30;2.75;;;5.50;99.90;;;;;;5049758;28;20032;-61
2021/03/18 07:11:21;;;;;;;6.85;2.65;;;5.50;99.90;;;;;;5041144;28;20029;-60
2021/03/18 07:13:48;;;;;;;7.40;3.15;;;5.70;99.90;;;;;;5011503;28;20034;-62
2021/03/18 07:16:14;;;;;;;7.93;3.22;;;5.60;99.90;;;;;;5033460;28;20489;-61
2021/03/18 07:18:41;;;;;;;8.52;3.00;;;5.50;99.90;;;;;;5051085;28;20478;-61
2021/03/18 07:21:11;;;;;;;7.30;2.90;;;5.70;99.90;;;;;;5038269;28;20309;-62
2021/03/18 07:23:41;;;;;;;7.55;3.08;;;5.60;99.90;;;;;;5040926;28;20198;-62
2021/03/18 07:26:18;;;;;;;6.40;2.63;;;5.60;99.90;;;;;;5042970;28;20087;-62
2021/03/18 07:28:52;;;;;;;7.10;3.17;;;5.70;99.90;;;;;;5037775;28;20258;-62
2021/03/18 07:31:20;;;;;;;7.65;3.10;;;5.80;99.90;;;;;;5036606;28;20022;-62
2021/03/18 07:33:47;;;;;;;6.85;2.30;;;5.80;99.90;;;;;;5027757;28;20302;-63
2021/03/18 07:36:15;;;;;;;6.47;2.83;;;5.90;99.90;;;;;;5037048;28;20031;-62
2021/03/18 07:38:42;;;;;;;8.82;3.00;;;6.00;99.90;;;;;;5016201;28;20025;-61
2021/03/18 07:41:13;;;;;;;7.25;2.85;;;5.90;99.90;;;;;;5032071;28;20041;-61
2021/03/18 07:43:44;;;;;;;5.82;2.75;;;5.90;99.90;;;;;;5029910;28;20043;-61
2021/03/18 07:46:18;;;;;;;11.43;3.45;;;5.90;99.90;;;;;;5032366;28;20040;-61
2021/03/18 07:48:49;;;;;;;5.25;2.78;;;5.70;99.90;;;;;;5030160;28;20202;-62
2021/03/18 07:51:16;;;;;;;9.77;3.20;;;5.80;99.90;;;;;;5035167;28;20067;-62
2021/03/18 07:53:53;;;;;;;7.63;2.92;;;6.20;99.90;;;;;;5050867;28;20017;-61
2021/03/18 07:56:19;;;;;;;6.20;2.85;;;6.30;99.90;;;;;;5038298;28;20421;-62
2021/03/18 07:58:46;;;;;;;7.05;3.83;;;6.50;99.90;;;;;;5010992;28;20010;-61
2021/03/18 08:01:30;;;;;;;7.45;3.00;;;6.60;99.90;;;;;;5031941;28;20439;-60
2021/03/18 08:04:01;;;;;;;4.63;2.67;;;6.50;99.90;;;;;;5015729;28;20036;-60
2021/03/18 08:06:41;;;;;;;6.60;3.38;;;6.60;99.90;;;;;;5033947;28;20045;-60
2021/03/18 08:09:12;;;;;;;8.05;3.03;;;6.60;99.90;;;;;;5050086;28;20021;-60
2021/03/18 08:11:40;;;;;;;4.15;2.80;;;6.80;99.90;;;;;;5034721;28;20065;-59
2021/03/18 08:14:06;;;;;;;7.25;3.67;;;7.30;99.90;;;;;;5029918;28;20022;-60
2021/03/18 08:16:33;;;;;;;8.13;3.25;;;7.20;99.90;;;;;;5034638;28;20026;-64
2021/03/18 08:19:00;;;;;;;5.63;3.03;;;6.90;99.90;;;;;;5030396;28;20025;-61
2021/03/18 08:22:01;;;;;;;7.07;3.40;;;6.80;99.90;;;;;;5035242;28;20464;-61
2021/03/18 08:24:33;;;;;;;7.18;3.28;;;6.90;99.90;;;;;;5046829;28;20528;-61
2021/03/18 08:26:59;;;;;;;5.03;2.70;;;6.90;99.90;;;;;;5038523;28;20370;-61
2021/03/18 08:29:41;;;;;;;4.70;3.00;;;6.80;99.90;;;;;;5048674;28;20086;-64
2021/03/18 08:32:27;;;;;;;5.40;3.47;;;6.90;99.90;;;;;;5040277;28;20025;-61
2021/03/18 08:34:58;;;;;;;8.55;3.15;;;7.00;99.90;;;;;;5046322;28;20021;-61
2021/03/18 08:37:50;;;;;;;6.57;3.03;;;6.90;99.90;;;;;;5034300;28;20030;-61
2021/03/18 08:40:19;;;;;;;6.20;3.13;;;6.60;99.90;;;;;;5033699;28;20072;-62
2021/03/18 08:42:48;;;;;;;7.90;3.50;;;6.60;99.90;;;;;;5033251;28;20083;-61
2021/03/18 08:45:19;;;;;;;5.50;3.35;;;6.80;99.90;;;;;;5029684;28;20037;-61
2021/03/18 08:47:56;;;;;;;4.97;3.03;;;7.00;99.90;;;;;;5025643;28;20068;-61
2021/03/18 08:50:24;;;;;;;6.30;3.53;;;7.20;99.90;;;;;;5044154;28;20033;-61
2021/03/18 08:52:54;;;;;;;5.13;3.28;;;7.40;99.90;;;;;;5033147;28;20025;-60
2021/03/18 08:55:37;;;;;;;7.80;3.50;;;7.30;99.90;;;;;;5044787;28;20025;-61
2021/03/18 08:58:07;;;;;;;7.25;3.50;;;7.60;99.90;;;;;;5043632;28;20112;-61
2021/03/18 09:00:34;;;;;;;5.13;3.20;;;7.80;99.90;;;;;;5042889;28;20032;-60
2021/03/18 09:03:01;;;;;;;6.18;3.50;;;8.10;99.90;;;;;;5042715;28;20017;-61
2021/03/18 09:05:27;;;;;;;8.48;3.72;;;7.80;99.90;;;;;;5040318;28;20061;-61
2021/03/18 09:07:58;;;;;;;8.45;3.45;;;7.80;99.90;;;;;;5028371;28;20087;-61
2021/03/18 09:10:26;;;;;;;6.53;3.40;;;7.80;99.90;;;;;;5034182;28;20109;-60
2021/03/18 09:12:58;;;;;;;6.72;3.72;;;8.00;99.90;;;;;;5029897;28;20037;-61
2021/03/18 09:15:26;;;;;;;8.93;3.58;;;8.20;99.90;;;;;;5028294;28;20055;-61
2021/03/18 09:17:55;;;;;;;7.70;3.45;;;8.10;99.90;;;;;;5028987;28;20032;-61
2021/03/18 09:20:25;;;;;;;9.88;3.80;;;8.20;99.90;;;;;;5029358;28;20680;-61
2021/03/18 09:22:52;;;;;;;8.68;4.05;;;8.40;99.90;;;;;;5027902;28;20032;-60
2021/03/18 09:25:23;;;;;;;5.90;3.80;;;8.30;99.90;;;;;;5025216;28;20017;-60
2021/03/18 09:27:48;;;;;;;5.68;3.50;;;8.50;99.90;;;;;;5028636;28;20116;-61
2021/03/18 09:30:26;;;;;;;4.47;3.50;;;8.30;99.90;;;;;;5036177;28;20119;-60
2021/03/18 09:32:54;;;;;;;3.78;3.40;;;8.50;99.90;;;;;;5050522;28;20434;-60
2021/03/18 09:35:20;;;;;;;6.85;3.65;;;8.90;99.90;;;;;;5035015;28;20025;-60
2021/03/18 09:37:46;;;;;;;5.10;3.10;;;9.00;99.90;;;;;;5041623;28;20041;-60
2021/03/18 09:40:14;;;;;;;13.15;3.40;;;9.20;99.90;;;;;;5037303;28;20025;-60
2021/03/18 09:42:41;;;;;;;5.47;4.00;;;9.30;99.90;;;;;;5032344;28;20041;-60
2021/03/18 09:45:08;;;;;;;6.65;3.35;;;9.20;99.90;;;;;;5036204;28;20029;-60
2021/03/18 09:47:35;;;;;;;3.80;3.45;;;9.40;99.90;;;;;;5034797;28;20517;-60
2021/03/18 09:50:01;;;;;;;5.57;3.40;;;9.70;99.90;;;;;;5035840;28;20029;-60
2021/03/18 09:52:28;;;;;;;6.60;3.65;;;10.50;99.90;;;;;;5033454;28;20013;-60
2021/03/18 09:54:56;;;;;;;6.15;4.10;;;9.20;99.90;;;;;;5034097;28;20033;-60
2021/03/18 09:57:22;;;;;;;8.05;3.65;;;9.30;99.90;;;;;;5033118;28;20519;-60
2021/03/18 09:59:52;;;;;;;6.40;3.90;;;9.10;99.90;;;;;;5033721;28;20489;-60
2021/03/18 10:02:24;;;;;;;4.60;3.30;;;9.50;99.90;;;;;;5042072;28;20499;-60
2021/03/18 10:04:50;;;;;;;3.92;3.13;;;9.40;99.90;;;;;;5043973;28;20136;-60
2021/03/18 10:07:16;;;;;;;3.83;3.40;;;10.10;99.90;;;;;;5040686;28;20164;-60
2021/03/18 10:09:45;;;;;;;6.32;4.00;;;9.80;99.90;;;;;;5033509;28;20048;-62
2021/03/18 10:12:18;;;;;;;4.82;3.25;;;9.60;99.90;;;;;;5039210;28;20017;-62
2021/03/18 10:14:54;;;;;;;4.82;3.63;;;9.60;99.90;;;;;;5032821;28;20052;-62
2021/03/18 10:17:26;;;;;;;;;;;9.40;99.90;;;;;;5038706;28;20375;-62
2021/03/18 10:19:57;;;;;;;4.32;3.25;;;9.50;99.90;;;;;;5033135;28;19925;-63
2021/03/18 10:22:30;;;;;;;4.72;3.63;;;10.30;99.90;;;;;;5039316;28;20723;-62
2021/03/18 10:25:00;;;;;;;5.22;3.60;;;10.30;99.90;;;;;;5034118;28;20037;-62
2021/03/18 10:27:34;;;;;;;7.55;3.38;;;10.50;99.90;;;;;;5043384;28;20386;-62
2021/03/18 10:30:09;;;;;;;7.60;3.25;;;10.70;99.90;;;;;;5047174;28;20033;-62
2021/03/18 10:32:36;;;;;;;6.20;3.83;;;10.70;99.90;;;;;;5040669;28;20033;-64
2021/03/18 10:35:02;;;;;;;3.88;3.28;;;10.10;99.90;;;;;;5033154;28;20046;-62
2021/03/18 10:37:32;;;;;;;3.40;2.85;;;10.10;99.90;;;;;;5030246;28;20024;-64
2021/03/18 10:40:08;;;;;;;4.80;3.22;;;10.70;99.90;;;;;;5034255;28;20025;-63
2021/03/18 10:42:34;;;;;;;4.68;3.45;;;11.20;99.90;;;;;;5030550;28;20038;-62
2021/03/18 10:45:20;;;;;;;5.50;2.90;;;11.30;99.90;;;;;;5033824;28;20030;-62
2021/03/18 10:47:46;;;;;;;4.20;3.05;;;10.70;99.90;;;;;;5033501;28;20036;-62
2021/03/18 10:50:15;;;;;;;3.40;2.45;;;10.50;99.90;;;;;;5048051;28;20033;-61
2021/03/18 10:52:49;;;;;;;2.90;2.60;;;10.70;99.90;;;;;;5041748;28;20048;-62
2021/03/18 10:55:25;;;;;;;3.75;2.38;;;10.50;99.90;;;;;;5047867;28;20594;-62
2021/03/18 10:57:55;;;;;;;3.58;2.75;;;10.70;99.90;;;;;;5035763;28;20497;-62
2021/03/18 11:00:21;;;;;;;3.17;2.53;;;10.40;99.90;;;;;;5047099;28;20037;-62
2021/03/18 11:03:15;;;;;;;4.45;2.65;;;10.30;99.90;;;;;;5043000;28;20029;-62
2021/03/18 11:05:49;;;;;;;4.28;2.42;;;10.90;99.90;;;;;;5043646;28;20407;-62
2021/03/18 11:08:25;;;;;;;3.53;2.55;;;11.00;99.90;;;;;;5046521;28;20116;-62
2021/03/18 11:10:53;;;;;;;3.67;2.22;;;10.80;99.90;;;;;;5042954;28;20029;-62
2021/03/18 11:13:30;;;;;;;2.55;2.35;;;10.10;99.90;;;;;;5047198;28;20438;-62
2021/03/18 11:16:00;;;;;;;2.50;2.30;;;10.60;99.90;;;;;;5042172;28;20112;-62
2021/03/18 11:18:33;;;;;;;3.15;2.25;;;11.50;99.90;;;;;;5048114;28;20028;-63
2021/03/18 11:21:00;;;;;;;2.95;2.50;;;11.80;99.90;;;;;;5041216;28;20072;-62
2021/03/18 11:23:37;;;;;;;5.63;2.45;;;11.40;99.90;;;;;;5047719;28;20468;-63
2021/03/18 11:26:06;;;;;;;2.10;1.80;;;10.60;99.90;;;;;;5041130;28;20104;-63
2021/03/18 11:28:32;;;;;;;2.88;2.65;;;10.80;99.90;;;;;;5048620;28;20702;-63
2021/03/18 11:30:59;;;;;;;2.80;2.05;;;10.70;99.90;;;;;;5044451;28;20457;-62
2021/03/18 11:33:33;;;;;;;2.45;2.22;;;10.90;99.90;;;;;;5034188;28;20109;-62
2021/03/18 11:36:02;;;;;;;2.63;2.30;;;10.50;99.90;;;;;;5030983;28;20013;-61
2021/03/18 11:38:28;;;;;;;3.15;2.58;;;10.60;99.90;;;;;;5027358;28;20708;-60
2021/03/18 11:40:53;;;;;;;3.08;2.20;;;10.50;99.90;;;;;;5032535;28;20037;-61
2021/03/18 11:43:19;;;;;;;2.80;2.50;;;11.00;99.90;;;;;;5030251;28;20498;-62
2021/03/18 11:45:45;;;;;;;4.38;2.50;;;11.70;99.90;;;;;;5031479;28;20506;-61
2021/03/18 11:48:11;;;;;;;3.45;2.55;;;11.20;99.90;;;;;;5030657;28;20022;-61
2021/03/18 11:50:38;;;;;;;4.85;2.17;;;11.20;99.90;;;;;;5034945;28;20572;-62
2021/03/18 11:53:04;;;;;;;2.58;2.38;;;10.60;99.90;;;;;;5044198;28;20021;-62
2021/03/18 11:55:30;;;;;;;2.28;2.08;;;10.80;99.90;;;;;;5045234;28;20104;-63
2021/03/18 11:57:58;;;;;;;2.53;1.88;;;11.50;99.90;;;;;;5043019;28;20103;-62
2021/03/18 12:00:26;;;;;;;2.42;2.17;;;12.10;99.80;;;;;;5044713;28;20594;-61
2021/03/18 12:02:53;;;;;;;3.00;2.33;;;12.10;99.90;;;;;;5042298;28;20594;-61
2021/03/18 12:05:19;;;;;;;4.22;1.92;;;11.80;99.90;;;;;;5036710;28;20063;-61
2021/03/18 12:07:45;;;;;;;3.10;1.92;;;11.00;99.90;;;;;;5032698;28;20021;-62
2021/03/18 12:10:11;;;;;;;1.90;1.80;;;10.70;99.90;;;;;;5043794;28;20330;-62
2021/03/18 12:12:37;;;;;;;1.90;1.80;;;11.10;99.90;;;;;;5040801;28;20028;-62
2021/03/18 12:15:05;;;;;;;2.80;2.22;;;11.10;99.90;;;;;;5046246;28;20025;-62
2021/03/18 12:17:30;;;;;;;2.47;1.80;;;10.70;98.90;;;;;;5043853;28;20579;-65
2021/03/18 12:19:56;;;;;;;2.10;1.90;;;11.60;99.90;;;;;;5048095;28;20041;-63
2021/03/18 12:22:22;;;;;;;2.13;1.80;;;10.80;97.80;;;;;;5039922;28;20167;-63
2021/03/18 12:24:48;;;;;;;2.13;2.03;;;11.30;97.90;;;;;;5043717;28;20025;-62
2021/03/18 12:27:13;;;;;;;1.75;1.65;;;12.50;98.20;;;;;;5029506;28;20018;-62
2021/03/18 12:29:39;;;;;;;1.77;1.67;;;13.20;98.50;;;;;;5029734;28;20386;-62
2021/03/18 12:32:05;;;;;;;1.90;1.60;;;13.40;98.20;;;;;;5029812;28;20025;-63
2021/03/18 12:34:30;;;;;;;1.55;1.45;;;12.20;97.30;;;;;;5031662;28;20374;-62
2021/03/18 12:36:56;;;;;;;1.75;1.52;;;12.30;97.40;;;;;;5028569;28;20083;-63
2021/03/18 12:39:22;;;;;;;2.95;1.38;;;11.90;96.00;;;;;;5028846;28;20028;-63
2021/03/18 12:41:48;;;;;;;1.42;1.33;;;12.10;96.00;;;;;;5034377;28;20041;-63
2021/03/18 12:44:14;;;;;;;1.55;1.45;;;11.70;96.00;;;;;;5028946;28;20022;-64
2021/03/18 12:46:39;;;;;;;2.55;1.63;;;11.40;96.80;;;;;;5031282;28;20059;-63
2021/03/18 12:49:06;;;;;;;4.97;1.80;;;11.20;97.40;;;;;;5027121;28;20029;-63
2021/03/18 12:51:32;;;;;;;1.63;1.52;;;11.00;97.10;;;;;;5029856;28;20386;-63
2021/03/18 12:53:58;;;;;;;3.58;1.52;;;11.10;98.10;;;;;;5029517;28;20026;-64
2021/03/18 12:56:25;;;;;;;2.10;1.42;;;11.30;98.10;;;;;;5034336;28;20068;-62
2021/03/18 12:58:51;;;;;;;1.85;1.40;;;11.10;97.60;;;;;;5009481;28;20594;-63
2021/03/18 13:01:16;;;;;;;2.03;1.90;;;11.50;99.40;;;;;;5030720;28;20034;-63
2021/03/18 13:03:42;;;;;;;1.58;1.48;;;11.30;97.70;;;;;;5048199;28;20033;-64
2021/03/18 13:06:08;;;;;;;2.42;2.08;;;11.10;98.90;;;;;;5037987;28;20628;-62